Time;durP1;ratioP1;P1;durP2;ratioP2;P2;SDS_P1;SDS_P2;PMS_P1;PMS_P2;Temp;Humidity;BMP_temperature;BMP_pressure;BME280_temperature;BME280_humidity;BME280_pressure;Samples;Min_cycle;Max_cycle;Signal;HPM_P1;HPM_P2
2022/06/29 00:00:22;;;;;;;10.10;9.10;;;;;;;23.99;68.67;99666.56;1680722;83;21247;-73
2022/06/29 00:02:48;;;;;;;10.25;9.03;;;;;;;23.98;68.63;99667.78;1707948;81;21071;-72
2022/06/29 00:05:18;;;;;;;11.38;9.35;;;;;;;23.95;68.60;99667.20;1689570;84;21032;-73
2022/06/29 00:07:46;;;;;;;9.55;8.55;;;;;;;23.93;68.74;99665.39;1693523;84;21047;-73
2022/06/29 00:10:14;;;;;;;12.98;10.25;;;;;;;23.91;68.80;99667.81;1692335;83;21056;-72
2022/06/29 00:12:42;;;;;;;9.90;9.00;;;;;;;23.91;68.73;99673.44;1683305;83;21140;-71
2022/06/29 00:15:10;;;;;;;13.20;9.33;;;;;;;23.89;68.62;99673.03;1690490;83;20992;-71
2022/06/29 00:17:38;;;;;;;10.45;8.95;;;;;;;23.88;68.66;99677.88;1690882;83;21536;-72
2022/06/29 00:20:06;;;;;;;14.05;8.93;;;;;;;23.88;68.70;99675.06;1690483;84;21084;-72
2022/06/29 00:22:49;;;;;;;17.82;8.73;;;;;;;23.85;68.82;99673.67;1688558;83;21050;-70
2022/06/29 00:25:15;;;;;;;11.15;9.43;;;;;;;23.84;68.86;99667.23;1689836;83;21070;-72
2022/06/29 00:27:42;;;;;;;10.60;9.45;;;;;;;23.88;68.71;99669.44;1689567;83;21073;-72
2022/06/29 00:30:12;;;;;;;10.40;9.35;;;;;;;23.89;68.74;99673.84;1681213;83;21071;-73
2022/06/29 00:32:40;;;;;;;10.45;8.70;;;;;;;23.89;68.74;99670.22;1687972;84;21011;-73
2022/06/29 00:35:18;;;;;;;10.32;9.10;;;;;;;23.86;68.93;99676.07;1686508;83;21133;-73
2022/06/29 00:37:45;;;;;;;10.48;8.35;;;;;;;23.79;69.24;99682.53;1688882;84;21177;-72
2022/06/29 00:40:14;;;;;;;8.85;7.95;;;;;;;23.73;69.34;99679.92;1695555;83;21039;-72
2022/06/29 00:42:41;;;;;;;10.28;9.15;;;;;;;23.69;69.57;99682.77;1690068;83;21483;-71
2022/06/29 00:45:09;;;;;;;14.23;8.30;;;;;;;23.65;69.78;99675.53;1693440;83;21039;-72
2022/06/29 00:47:36;;;;;;;9.85;8.85;;;;;;;23.62;70.04;99677.76;1718123;81;21014;-73
2022/06/29 00:50:07;;;;;;;10.03;9.03;;;;;;;23.57;70.27;99675.58;1718111;81;21071;-73
2022/06/29 00:52:34;;;;;;;10.93;9.55;;;;;;;23.53;70.43;99681.80;1670443;83;21107;-72
2022/06/29 00:55:05;;;;;;;10.20;8.53;;;;;;;23.46;70.93;99682.62;1669434;84;21024;-73
2022/06/29 00:57:32;;;;;;;10.70;9.35;;;;;;;23.37;71.23;99683.63;1678608;84;21037;-73
2022/06/29 01:00:00;;;;;;;8.45;7.55;;;;;;;23.31;71.41;99679.02;1696634;82;21068;-74
2022/06/29 01:02:41;;;;;;;9.65;8.68;;;;;;;23.32;71.49;99667.17;1684537;83;21090;-72
2022/06/29 01:05:12;;;;;;;13.83;9.13;;;;;;;23.32;71.25;99669.36;1689595;83;21080;-73
2022/06/29 01:07:38;;;;;;;12.60;9.25;;;;;;;23.28;71.22;99677.61;1671858;85;21029;-73
2022/06/29 01:10:07;;;;;;;10.05;8.78;;;;;;;23.26;71.25;99672.39;1679491;83;21050;-73
2022/06/29 01:12:34;;;;;;;11.90;9.63;;;;;;;23.25;71.15;99676.42;1673299;83;21033;-71
2022/06/29 01:15:02;;;;;;;10.30;9.33;;;;;;;23.22;71.16;99675.20;1676924;83;21357;-72
2022/06/29 01:17:29;;;;;;;11.57;10.10;;;;;;;23.20;71.22;99679.64;1676775;84;21012;-71
2022/06/29 01:19:56;;;;;;;11.45;8.35;;;;;;;23.14;71.60;99682.64;1668702;85;21051;-72
2022/06/29 01:22:23;;;;;;;14.75;10.15;;;;;;;23.13;71.69;99684.66;1671415;85;21525;-73
2022/06/29 01:24:51;;;;;;;11.48;9.68;;;;;;;23.17;71.57;99684.63;1662968;84;22152;-73
2022/06/29 01:27:19;;;;;;;10.35;9.33;;;;;;;23.17;71.46;99687.45;1666560;84;21314;-73
2022/06/29 01:29:48;;;;;;;9.75;8.70;;;;;;;23.11;71.75;99689.88;1665754;83;21024;-72
2022/06/29 01:32:19;;;;;;;11.40;10.00;;;;;;;23.09;71.83;99679.05;1672971;84;21072;-71
2022/06/29 01:34:52;;;;;;;11.95;10.18;;;;;;;23.11;71.67;99674.42;1670048;84;21022;-72
2022/06/29 01:37:19;;;;;;;15.30;9.03;;;;;;;23.10;71.73;99682.05;1671584;84;21026;-72
2022/06/29 01:39:46;;;;;;;14.38;9.98;;;;;;;23.13;71.72;99685.26;1666382;85;21631;-72
2022/06/29 01:42:14;;;;;;;12.90;9.75;;;;;;;23.14;71.67;99686.85;1668117;85;21103;-72
2022/06/29 01:44:41;;;;;;;12.98;9.78;;;;;;;23.08;71.65;99687.25;1666539;84;21009;-72
2022/06/29 01:47:07;;;;;;;11.22;9.40;;;;;;;23.05;71.73;99690.06;1680980;84;21072;-72
2022/06/29 01:49:35;;;;;;;15.98;9.53;;;;;;;23.03;71.64;99705.92;1676177;84;21079;-72
2022/06/29 01:52:01;;;;;;;9.23;8.33;;;;;;;22.98;71.51;99707.72;1691869;83;21167;-71
2022/06/29 01:54:28;;;;;;;12.05;9.70;;;;;;;22.92;71.91;99703.72;1677021;83;21459;-72
2022/06/29 01:56:54;;;;;;;11.88;8.93;;;;;;;22.90;72.23;99704.72;1672437;84;21572;-72
2022/06/29 01:59:21;;;;;;;12.58;10.28;;;;;;;22.91;72.28;99697.91;1664738;84;21680;-71
2022/06/29 02:01:49;;;;;;;12.15;9.98;;;;;;;22.93;72.31;99699.70;1671451;84;21588;-72
2022/06/29 02:04:16;;;;;;;15.65;9.23;;;;;;;22.91;72.46;99700.72;1673369;85;21799;-73
2022/06/29 02:06:43;;;;;;;11.63;9.50;;;;;;;22.90;72.54;99700.50;1674261;84;21081;-72
2022/06/29 02:09:09;;;;;;;14.38;10.10;;;;;;;22.91;72.48;99703.53;1682274;85;21094;-72
2022/06/29 02:11:37;;;;;;;13.38;10.45;;;;;;;22.88;72.53;99705.73;1668243;85;21029;-72
2022/06/29 02:14:06;;;;;;;10.32;9.05;;;;;;;22.84;72.78;99723.98;1660611;85;21130;-72
2022/06/29 02:16:34;;;;;;;12.20;9.73;;;;;;;22.83;72.73;99724.58;1724164;81;21475;-72
2022/06/29 02:19:01;;;;;;;15.08;10.08;;;;;;;22.83;72.81;99724.58;1729966;81;21038;-73
2022/06/29 02:21:28;;;;;;;11.93;10.43;;;;;;;22.85;72.98;99725.58;1730114;82;21092;-72
2022/06/29 02:23:55;;;;;;;13.30;9.28;;;;;;;22.87;73.08;99734.42;1731895;81;21005;-72
2022/06/29 02:26:25;;;;;;;12.30;9.68;;;;;;;22.92;73.25;99737.42;1726326;81;21025;-71
2022/06/29 02:28:53;;;;;;;10.98;9.13;;;;;;;22.95;73.28;99745.05;1716800;82;21128;-73
2022/06/29 02:36:50;;;;;;;12.65;10.15;;;;;;;23.00;73.55;99749.48;1699841;83;21591;-73
2022/06/29 02:39:17;;;;;;;11.48;8.68;;;;;;;22.97;73.84;99743.45;1706649;83;21604;-74
2022/06/29 02:41:43;;;;;;;10.23;8.68;;;;;;;22.98;74.12;99744.23;1699662;83;21287;-73
2022/06/29 02:44:10;;;;;;;12.05;9.10;;;;;;;23.00;74.32;99739.66;1701834;83;21098;-73
2022/06/29 02:46:37;;;;;;;14.70;8.83;;;;;;;23.01;74.38;99739.25;1701575;83;21529;-74
2022/06/29 02:49:06;;;;;;;10.25;9.25;;;;;;;23.01;74.75;99745.45;1704370;83;21046;-73
2022/06/29 02:51:34;;;;;;;11.18;9.98;;;;;;;22.98;75.04;99746.45;1700609;83;21039;-73
2022/06/29 02:54:05;;;;;;;12.28;9.13;;;;;;;22.97;75.26;99744.86;1703132;83;21462;-74
2022/06/29 02:56:32;;;;;;;17.80;10.35;;;;;;;22.97;75.49;99744.05;1694435;83;21004;-73
2022/06/29 02:58:58;;;;;;;11.45;10.23;;;;;;;22.98;75.41;99750.67;1678667;83;21181;-73
2022/06/29 03:01:26;;;;;;;12.23;9.85;;;;;;;22.98;75.45;99755.47;1685125;83;21017;-74
2022/06/29 03:03:59;;;;;;;13.62;9.35;;;;;;;23.00;75.53;99750.27;1690614;82;21021;-74
2022/06/29 03:06:27;;;;;;;12.98;9.90;;;;;;;23.03;75.70;99750.86;1694491;83;21932;-72
2022/06/29 03:08:54;;;;;;;14.90;10.72;;;;;;;23.07;75.83;99744.66;1689961;83;21049;-74
2022/06/29 03:11:24;;;;;;;13.55;10.25;;;;;;;23.11;75.96;99744.66;1646958;83;21127;-74
2022/06/29 03:13:52;;;;;;;18.80;10.90;;;;;;;23.15;76.11;99749.66;1704493;82;21068;-74
2022/06/29 03:16:19;;;;;;;11.97;10.28;;;;;;;23.21;76.13;99747.27;1716180;82;20987;-74
2022/06/29 03:18:47;;;;;;;21.80;11.83;;;;;;;23.25;76.15;99748.67;1720975;82;21850;-74
2022/06/29 03:21:13;;;;;;;11.22;9.58;;;;;;;23.28;76.21;99752.08;1700603;82;21071;-73
2022/06/29 03:23:42;;;;;;;17.75;10.28;;;;;;;23.29;76.50;99753.08;1707087;82;21029;-73
2022/06/29 03:26:09;;;;;;;11.48;10.05;;;;;;;23.35;76.75;99747.87;1705169;82;21181;-74
2022/06/29 03:28:36;;;;;;;15.85;10.40;;;;;;;23.43;76.77;99743.06;1710839;82;21011;-74
2022/06/29 03:31:04;;;;;;;12.98;9.88;;;;;;;23.51;76.85;99739.65;1701429;83;21770;-74
2022/06/29 03:33:31;;;;;;;13.93;9.65;;;;;;;23.59;76.88;99734.99;1718774;82;21529;-73
2022/06/29 03:35:58;;;;;;;15.32;10.78;;;;;;;23.69;77.00;99733.98;1715783;82;21044;-72
2022/06/29 03:38:24;;;;;;;14.70;11.35;;;;;;;23.78;77.18;99730.75;1709606;82;21037;-73
2022/06/29 03:40:52;;;;;;;14.40;10.72;;;;;;;23.89;77.29;99732.11;1708896;82;21003;-72
2022/06/29 03:43:19;;;;;;;11.80;10.30;;;;;;;23.99;77.34;99738.30;1707217;82;21696;-74
2022/06/29 03:45:45;;;;;;;15.60;11.25;;;;;;;24.10;77.38;99736.05;1709370;82;21053;-73
2022/06/29 03:48:12;;;;;;;12.47;10.72;;;;;;;24.21;77.62;99741.05;1715392;82;21621;-72
2022/06/29 03:50:39;;;;;;;12.53;11.00;;;;;;;24.33;77.50;99738.38;1710469;82;21038;-74
2022/06/29 03:53:17;;;;;;;14.95;10.10;;;;;;;24.46;77.61;99737.33;1704153;82;21037;-74
2022/06/29 03:55:44;;;;;;;13.00;10.40;;;;;;;24.57;77.64;99733.02;1708699;82;22462;-73
2022/06/29 03:58:11;;;;;;;12.55;10.40;;;;;;;24.69;77.69;99731.73;1709427;83;22112;-73
2022/06/29 04:00:39;;;;;;;12.90;10.50;;;;;;;24.78;77.51;99732.09;1703304;82;21541;-73
2022/06/29 04:03:06;;;;;;;14.28;10.63;;;;;;;24.87;77.38;99733.64;1708023;82;21117;-71
2022/06/29 04:05:33;;;;;;;14.40;10.13;;;;;;;24.96;77.22;99728.98;1711757;82;21029;-73
2022/06/29 04:08:01;;;;;;;12.33;9.05;;;;;;;25.06;76.82;99727.28;1711629;83;21548;-73
2022/06/29 04:10:28;;;;;;;13.20;9.25;;;;;;;25.15;75.62;99722.77;1721150;81;21035;-72
2022/06/29 04:13:07;;;;;;;15.13;9.78;;;;;;;25.24;74.92;99732.16;1709765;81;21227;-71
2022/06/29 04:15:34;;;;;;;9.63;8.63;;;;;;;25.34;74.42;99726.82;1714639;83;21018;-72
2022/06/29 04:18:04;;;;;;;10.30;8.63;;;;;;;25.43;72.81;99727.15;1715388;83;20977;-73
2022/06/29 04:23:16;;;;;;;9.83;8.83;;;;;;;25.64;70.02;99711.26;1716527;83;21097;-73
2022/06/29 04:25:43;;;;;;;10.78;8.35;;;;;;;25.73;68.55;99714.36;1729120;81;21021;-71
2022/06/29 04:28:10;;;;;;;13.50;9.23;;;;;;;25.82;67.53;99711.64;1717074;81;21033;-72
2022/06/29 04:30:42;;;;;;;10.60;9.50;;;;;;;25.90;67.04;99715.98;1714803;81;21041;-70
2022/06/29 04:33:16;;;;;;;10.05;9.05;;;;;;;25.97;66.73;99709.45;1710606;83;21055;-71
2022/06/29 04:36:02;;;;;;;9.55;8.55;;;;;;;26.04;66.32;99712.79;1715641;81;21056;-72
2022/06/29 04:38:30;;;;;;;19.32;8.93;;;;;;;26.10;66.05;99713.94;1716122;83;21002;-70
2022/06/29 04:41:13;;;;;;;14.28;8.65;;;;;;;26.17;65.81;99717.28;1714917;83;21490;-71
2022/06/29 04:43:41;;;;;;;8.80;7.97;;;;;;;26.22;65.10;99720.41;1720665;81;21042;-71
2022/06/29 04:46:21;;;;;;;10.58;9.40;;;;;;;26.28;65.02;99717.92;1715517;83;21138;-71
2022/06/29 04:48:58;;;;;;;11.00;8.98;;;;;;;26.36;64.97;99715.83;1717783;81;21011;-73
2022/06/29 04:51:28;;;;;;;10.88;8.38;;;;;;;26.42;64.73;99714.14;1715220;83;21043;-71
2022/06/29 04:53:56;;;;;;;10.82;9.05;;;;;;;26.49;64.39;99709.78;1723704;81;21051;-72
2022/06/29 04:56:24;;;;;;;12.18;9.40;;;;;;;26.55;64.33;99709.30;1715584;83;21089;-71
2022/06/29 04:58:53;;;;;;;10.50;9.40;;;;;;;26.60;64.56;99710.23;1710092;83;21150;-72
2022/06/29 05:01:22;;;;;;;12.93;8.63;;;;;;;26.65;64.39;99713.99;1726179;81;21091;-72
2022/06/29 05:03:48;;;;;;;16.00;9.35;;;;;;;26.72;63.55;99712.48;1688875;83;21061;-71
2022/06/29 05:06:15;;;;;;;11.65;9.80;;;;;;;26.78;62.69;99708.56;1716542;81;21076;-71
2022/06/29 05:08:41;;;;;;;10.58;9.10;;;;;;;26.86;62.82;99706.41;1700475;81;21007;-72
2022/06/29 05:11:13;;;;;;;11.22;10.13;;;;;;;26.92;62.72;99710.34;1719488;81;21142;-72
2022/06/29 05:13:41;;;;;;;13.22;10.40;;;;;;;26.98;62.69;99712.88;1716824;81;21014;-72
2022/06/29 05:16:09;;;;;;;9.83;8.93;;;;;;;27.02;61.96;99711.44;1715493;81;21065;-72
2022/06/29 05:18:38;;;;;;;10.60;9.53;;;;;;;27.04;61.94;99710.38;1718227;81;21037;-72
2022/06/29 05:21:06;;;;;;;12.40;8.88;;;;;;;27.06;61.47;99707.92;1713782;83;21503;-71
2022/06/29 05:23:33;;;;;;;12.07;9.63;;;;;;;27.08;61.68;99713.14;1696745;83;21652;-73
2022/06/29 05:26:00;;;;;;;10.53;9.25;;;;;;;27.10;61.21;99712.11;1666017;84;21620;-73
2022/06/29 05:28:26;;;;;;;11.50;9.03;;;;;;;27.11;60.60;99712.28;1689666;83;21020;-71
2022/06/29 05:30:55;;;;;;;14.15;9.18;;;;;;;27.12;60.37;99716.72;1690033;83;21732;-72
2022/06/29 05:33:23;;;;;;;12.20;9.50;;;;;;;27.13;60.64;99711.23;1661909;85;21061;-72
2022/06/29 05:35:49;;;;;;;14.23;9.35;;;;;;;27.15;60.72;99711.61;1677420;84;21104;-70
2022/06/29 05:38:16;;;;;;;11.70;8.85;;;;;;;27.17;60.11;99717.64;1636812;86;21115;-71
2022/06/29 05:40:44;;;;;;;11.20;9.58;;;;;;;27.19;59.84;99716.58;1667491;84;21705;-72
2022/06/29 05:43:10;;;;;;;14.55;9.48;;;;;;;27.22;59.57;99721.39;1678575;84;21614;-69
2022/06/29 05:45:38;;;;;;;10.03;8.98;;;;;;;27.25;59.47;99721.73;1664132;85;21476;-71
2022/06/29 05:48:06;;;;;;;20.12;9.45;;;;;;;27.27;59.65;99721.50;1673546;84;21947;-72
2022/06/29 05:50:32;;;;;;;10.35;9.23;;;;;;;27.27;59.69;99725.75;1665809;85;21060;-71
2022/06/29 05:53:00;;;;;;;11.25;9.65;;;;;;;27.27;59.93;99727.16;1671649;84;21019;-71
2022/06/29 05:55:27;;;;;;;12.88;9.20;;;;;;;27.29;60.31;99725.31;1667489;85;21019;-72
2022/06/29 05:57:54;;;;;;;9.83;8.38;;;;;;;27.32;60.54;99731.52;1667878;85;21029;-73
2022/06/29 06:00:21;;;;;;;15.05;9.13;;;;;;;27.36;60.58;99737.92;1654723;84;21277;-71
2022/06/29 06:02:47;;;;;;;9.98;8.43;;;;;;;27.40;60.85;99731.56;1659629;84;21102;-73
2022/06/29 06:05:14;;;;;;;12.13;8.30;;;;;;;27.45;60.53;99734.50;1660802;84;21308;-72
2022/06/29 06:07:40;;;;;;;12.75;9.35;;;;;;;27.51;60.57;99734.81;1673586;84;21021;-69
2022/06/29 06:10:09;;;;;;;9.60;8.70;;;;;;;27.57;60.72;99738.73;1721852;83;21554;-72
2022/06/29 06:12:37;;;;;;;9.80;8.33;;;;;;;27.64;60.45;99742.84;1727445;81;21099;-71
2022/06/29 06:15:05;;;;;;;8.85;8.05;;;;;;;27.70;60.53;99739.75;1738404;81;21449;-72
2022/06/29 06:17:32;;;;;;;10.43;8.40;;;;;;;27.78;60.67;99739.59;1732269;81;20989;-72
2022/06/29 06:19:59;;;;;;;15.32;9.13;;;;;;;27.85;60.48;99739.45;1733785;81;21107;-71
2022/06/29 06:22:25;;;;;;;15.45;7.85;;;;;;;27.92;60.39;99741.34;1734573;82;21005;-72
2022/06/29 06:24:56;;;;;;;8.53;7.62;;;;;;;27.94;59.73;99736.83;1687690;84;20972;-70
2022/06/29 06:27:22;;;;;;;9.48;7.97;;;;;;;27.99;59.89;99730.48;1707100;82;21009;-74
2022/06/29 06:29:59;;;;;;;11.63;8.05;;;;;;;28.04;60.42;99720.07;1709296;83;21021;-72
2022/06/29 06:32:26;;;;;;;14.98;8.43;;;;;;;28.11;60.54;99721.34;1707246;82;21029;-73
2022/06/29 06:34:52;;;;;;;10.75;7.95;;;;;;;28.16;60.12;99719.41;1641881;84;21141;-74
2022/06/29 06:37:20;;;;;;;13.32;8.43;;;;;;;28.19;60.02;99706.41;1712145;82;21749;-71
2022/06/29 06:42:33;;;;;;;12.07;8.65;;;;;;;28.25;59.16;99708.88;1684274;84;21487;-71
2022/06/29 06:45:02;;;;;;;9.40;8.40;;;;;;;28.29;59.20;99709.62;1687668;84;21012;-71
2022/06/29 06:47:33;;;;;;;10.00;7.85;;;;;;;28.35;58.49;99703.47;1691292;83;21127;-71
2022/06/29 06:49:59;;;;;;;13.95;8.90;;;;;;;28.39;58.46;99704.16;1701090;83;21188;-72
2022/06/29 06:52:29;;;;;;;9.58;8.58;;;;;;;28.43;58.52;99704.28;1702573;82;21042;-72
2022/06/29 06:54:56;;;;;;;12.73;7.97;;;;;;;28.47;58.26;99694.29;1703389;82;21100;-72
2022/06/29 06:57:22;;;;;;;8.58;7.72;;;;;;;28.53;58.39;99695.35;1694042;83;21110;-73
2022/06/29 06:59:53;;;;;;;8.65;7.75;;;;;;;28.59;57.91;99691.99;1735241;81;20988;-72
2022/06/29 07:02:22;;;;;;;9.95;7.30;;;;;;;28.64;57.86;99687.99;1734482;81;21957;-73
2022/06/29 07:04:49;;;;;;;10.03;7.72;;;;;;;28.71;57.53;99694.75;1731573;82;21541;-71
2022/06/29 07:07:16;;;;;;;11.65;8.13;;;;;;;28.75;57.38;99689.77;1733417;82;21544;-71
2022/06/29 07:09:43;;;;;;;12.55;7.58;;;;;;;28.78;57.05;99688.27;1730275;81;21530;-72
2022/06/29 07:12:10;;;;;;;12.63;7.95;;;;;;;28.83;57.46;99685.52;1741723;80;21140;-72
2022/06/29 07:14:39;;;;;;;11.80;8.58;;;;;;;28.91;56.87;99679.88;1738276;80;21149;-72
2022/06/29 07:17:05;;;;;;;10.65;7.92;;;;;;;28.96;56.44;99677.72;1750796;80;21044;-74
2022/06/29 07:19:32;;;;;;;8.68;7.55;;;;;;;28.96;55.82;99677.72;1751382;80;21485;-74
2022/06/29 07:21:59;;;;;;;9.60;8.13;;;;;;;28.87;55.72;99681.98;1744685;80;21048;-72
2022/06/29 07:24:25;;;;;;;10.10;8.18;;;;;;;28.87;56.50;99684.02;1748074;80;22105;-72
2022/06/29 07:26:52;;;;;;;19.62;8.28;;;;;;;28.98;57.35;99682.37;1748908;80;21084;-74
2022/06/29 07:29:18;;;;;;;8.33;7.37;;;;;;;29.08;57.22;99681.91;1751159;80;21017;-72
2022/06/29 07:31:46;;;;;;;32.25;8.63;;;;;;;29.15;55.66;99682.53;1749338;80;21071;-71
2022/06/29 07:34:13;;;;;;;19.73;8.05;;;;;;;29.16;55.57;99683.31;1738673;80;21559;-71
2022/06/29 07:36:39;;;;;;;7.85;7.05;;;;;;;29.26;55.66;99681.42;1751028;80;21013;-73
2022/06/29 07:39:06;;;;;;;16.12;8.15;;;;;;;29.35;55.04;99680.17;1750900;80;21553;-70
2022/06/29 07:41:38;;;;;;;9.18;7.72;;;;;;;29.47;55.48;99683.50;1747969;81;21065;-72
2022/06/29 07:44:05;;;;;;;9.43;7.53;;;;;;;29.57;55.76;99686.67;1745883;81;21040;-73
2022/06/29 07:46:32;;;;;;;12.15;8.10;;;;;;;29.67;55.14;99681.95;1749505;80;21009;-74
2022/06/29 07:48:58;;;;;;;9.40;7.28;;;;;;;29.74;55.12;99683.18;1748149;82;21025;-73
2022/06/29 07:51:25;;;;;;;8.40;7.45;;;;;;;29.79;54.66;99679.63;1756287;80;21501;-72
2022/06/29 07:53:51;;;;;;;9.80;7.60;;;;;;;29.82;54.28;99681.56;1747834;82;21013;-72
2022/06/29 07:56:18;;;;;;;8.63;7.83;;;;;;;29.86;53.85;99677.98;1746481;80;21043;-73
2022/06/29 07:58:46;;;;;;;10.95;7.50;;;;;;;29.94;53.99;99682.84;1746183;80;21056;-71
2022/06/29 08:01:13;;;;;;;18.57;8.13;;;;;;;29.98;53.47;99676.41;1744578;80;21060;-72
2022/06/29 08:03:40;;;;;;;10.05;8.53;;;;;;;30.05;54.09;99671.94;1748197;82;21793;-72
2022/06/29 08:06:08;;;;;;;10.18;7.78;;;;;;;30.07;53.39;99675.13;1741226;80;21525;-73
2022/06/29 08:08:35;;;;;;;8.73;7.75;;;;;;;30.12;53.75;99670.92;1749295;80;21016;-73
2022/06/29 08:11:02;;;;;;;13.48;7.92;;;;;;;30.18;52.21;99671.17;1747331;80;21056;-73
2022/06/29 08:13:31;;;;;;;12.13;7.95;;;;;;;30.15;52.63;99662.11;1744410;80;21110;-73
2022/06/29 08:15:57;;;;;;;9.90;7.65;;;;;;;30.15;53.17;99664.34;1746907;82;21525;-72
2022/06/29 08:18:24;;;;;;;12.07;8.30;;;;;;;30.24;52.39;99661.66;1747728;82;21064;-72
2022/06/29 08:20:52;;;;;;;13.38;8.55;;;;;;;30.33;51.97;99662.38;1752750;80;21036;-71
2022/06/29 08:23:19;;;;;;;15.28;8.98;;;;;;;30.42;51.51;99666.61;1747156;80;21040;-69
2022/06/29 08:25:45;;;;;;;10.10;8.48;;;;;;;30.48;50.97;99672.69;1755197;79;21965;-67
2022/06/29 08:28:12;;;;;;;21.48;9.08;;;;;;;30.52;50.17;99666.09;1744447;80;21508;-72
2022/06/29 08:30:40;;;;;;;11.65;8.28;;;;;;;30.51;50.00;99669.55;1731480;80;21513;-70
2022/06/29 08:33:24;;;;;;;11.83;8.43;;;;;;;30.58;49.34;99668.52;1749729;80;21521;-73
2022/06/29 08:35:54;;;;;;;10.95;7.85;;;;;;;30.62;48.54;99670.63;1746765;80;20989;-74
2022/06/29 08:38:21;;;;;;;9.75;7.75;;;;;;;30.67;49.31;99670.05;1753470;80;20994;-70
2022/06/29 08:40:50;;;;;;;10.93;8.23;;;;;;;30.73;48.40;99665.98;1756816;80;21453;-73
2022/06/29 08:43:18;;;;;;;9.50;8.08;;;;;;;30.79;49.57;99668.45;1745810;80;21028;-73
2022/06/29 08:45:46;;;;;;;9.10;7.70;;;;;;;30.90;49.11;99671.55;1745712;80;21115;-74
2022/06/29 08:48:14;;;;;;;10.08;7.47;;;;;;;31.00;49.33;99673.89;1747971;81;21482;-76
2022/06/29 08:50:41;;;;;;;10.53;7.95;;;;;;;31.02;49.57;99678.46;1747911;80;21005;-72
2022/06/29 08:53:12;;;;;;;9.30;7.42;;;;;;;30.97;47.83;99668.47;1746607;81;21128;-73
2022/06/29 08:55:55;;;;;;;10.58;7.40;;;;;;;30.85;48.83;99669.48;1747224;80;21069;-72
2022/06/29 08:58:25;;;;;;;9.15;6.58;;;;;;;30.91;49.04;99668.28;1753055;80;20997;-71
2022/06/29 09:00:53;;;;;;;9.95;6.75;;;;;;;30.99;47.65;99665.97;1747336;80;21045;-73
2022/06/29 09:03:27;;;;;;;9.93;7.53;;;;;;;31.07;46.55;99667.31;1751652;80;21005;-71
2022/06/29 09:05:55;;;;;;;8.05;7.22;;;;;;;31.13;46.49;99668.95;1747149;80;21892;-72
2022/06/29 09:08:21;;;;;;;8.48;6.47;;;;;;;31.21;46.49;99663.17;1747932;82;20998;-72
2022/06/29 09:10:49;;;;;;;7.65;6.50;;;;;;;31.31;46.38;99661.20;1751601;79;21012;-72
2022/06/29 09:13:23;;;;;;;14.35;7.78;;;;;;;31.43;46.33;99662.42;1730981;81;21042;-73
2022/06/29 09:15:57;;;;;;;7.87;6.45;;;;;;;31.51;45.64;99670.06;1726302;81;21856;-72
2022/06/29 09:18:32;;;;;;;10.93;6.60;;;;;;;31.61;46.33;99667.30;1725985;81;21126;-73
2022/06/29 09:21:02;;;;;;;7.65;6.70;;;;;;;31.68;47.24;99666.39;1726999;83;21039;-72
2022/06/29 09:23:30;;;;;;;9.83;6.35;;;;;;;31.75;48.24;99668.17;1725206;80;21039;-72
2022/06/29 09:25:57;;;;;;;7.08;6.12;;;;;;;31.81;46.06;99657.79;1732411;81;21037;-69
2022/06/29 09:28:28;;;;;;;7.15;5.92;;;;;;;31.91;45.61;99662.91;1730092;81;21026;-69
2022/06/29 09:30:56;;;;;;;8.13;6.83;;;;;;;32.01;44.57;99655.23;1726286;81;21143;-70
2022/06/29 09:33:25;;;;;;;8.58;7.17;;;;;;;32.12;43.91;99656.86;1729461;81;21000;-69
2022/06/29 09:36:14;;;;;;;9.48;6.15;;;;;;;32.19;43.37;99658.02;1724065;81;21002;-72
2022/06/29 09:38:41;;;;;;;6.75;5.97;;;;;;;32.25;43.49;99656.75;1720913;81;21003;-71
2022/06/29 09:41:14;;;;;;;6.40;5.70;;;;;;;32.30;44.05;99650.44;1726029;83;21063;-71
2022/06/29 09:43:47;;;;;;;7.35;6.50;;;;;;;32.36;42.64;99647.16;1672468;84;21214;-70
2022/06/29 09:46:16;;;;;;;7.70;6.53;;;;;;;32.35;41.64;99642.70;1730281;81;21095;-69
2022/06/29 09:51:39;;;;;;;14.95;6.45;;;;;;;32.14;43.52;99641.53;1666472;85;21517;-72
2022/06/29 09:54:07;;;;;;;8.63;5.75;;;;;;;32.24;43.43;99632.38;1691657;83;22181;-71
2022/06/29 09:56:48;;;;;;;8.60;5.97;;;;;;;32.34;42.34;99626.08;1721985;83;21004;-72
2022/06/29 10:02:34;;;;;;;7.37;5.75;;;;;;;32.40;41.81;99633.55;1726769;81;21030;-72
2022/06/29 10:05:04;;;;;;;7.08;5.92;;;;;;;32.49;41.03;99624.86;1729484;81;21046;-70
2022/06/29 10:07:31;;;;;;;6.87;6.15;;;;;;;32.58;39.73;99624.12;1721818;81;21130;-71
2022/06/29 10:09:59;;;;;;;7.75;6.90;;;;;;;32.62;39.00;99621.27;1729285;81;21136;-70
2022/06/29 10:16:06;;;;;;;7.42;6.30;;;;;;;32.71;39.63;99616.84;1689811;83;21002;-71
2022/06/29 10:19:16;;;;;;;7.17;6.53;;;;;;;32.82;38.55;99619.25;1687473;83;21030;-70
2022/06/29 10:21:47;;;;;;;6.25;5.65;;;;;;;32.85;38.35;99612.59;1691547;82;21093;-72
2022/06/29 10:24:17;;;;;;;6.60;5.85;;;;;;;32.92;37.87;99615.14;1709599;83;21075;-70
2022/06/29 10:26:47;;;;;;;7.20;6.50;;;;;;;32.96;38.36;99614.99;1711759;82;21102;-72
2022/06/29 10:29:22;;;;;;;12.05;6.58;;;;;;;33.03;38.56;99610.38;1713180;82;21070;-71
2022/06/29 10:31:56;;;;;;;10.70;6.62;;;;;;;33.11;38.17;99600.29;1716462;82;21046;-72
2022/06/29 10:34:34;;;;;;;10.45;6.28;;;;;;;33.18;38.69;99590.62;1658326;84;21498;-72
2022/06/29 10:37:09;;;;;;;9.95;6.97;;;;;;;33.25;38.76;99585.98;1685763;84;21243;-71
2022/06/29 10:39:52;;;;;;;7.40;6.70;;;;;;;33.34;39.85;99591.53;1688324;83;21053;-69
2022/06/29 10:45:29;;;;;;;8.25;6.53;;;;;;;33.52;39.90;99572.16;1689079;83;21026;-66
2022/06/29 10:48:14;;;;;;;7.15;6.42;;;;;;;33.54;39.14;99573.88;1683719;84;21043;-73
2022/06/29 10:50:53;;;;;;;8.03;6.35;;;;;;;33.57;38.79;99564.38;1691061;83;21162;-75
2022/06/29 10:53:41;;;;;;;10.37;7.03;;;;;;;33.60;38.00;99564.05;1679936;82;21082;-78
2022/06/29 10:56:18;;;;;;;11.20;7.62;;;;;;;33.62;38.01;99559.45;1700418;83;22378;-73
2022/06/29 10:58:55;;;;;;;8.68;6.15;;;;;;;33.63;38.58;99550.23;1687548;83;21580;-77
2022/06/29 11:01:32;;;;;;;7.40;6.62;;;;;;;33.47;38.32;99555.69;1690406;83;21056;-71
2022/06/29 11:04:00;;;;;;;7.75;6.87;;;;;;;33.43;39.64;99547.91;1691287;82;21185;-71
2022/06/29 11:12:23;;;;;;;7.72;6.72;;;;;;;33.79;39.02;99563.38;1679988;83;21163;-70
2022/06/29 11:17:48;;;;;;;9.75;6.33;;;;;;;34.02;39.07;99548.85;1750663;80;21497;-70
2022/06/29 11:20:22;;;;;;;6.85;6.10;;;;;;;34.10;38.56;99547.98;1754541;80;21001;-72
2022/06/29 11:22:53;;;;;;;13.15;6.35;;;;;;;34.19;38.35;99538.61;1747822;82;21064;-73
2022/06/29 11:25:20;;;;;;;6.42;5.72;;;;;;;34.31;37.46;99536.79;1714895;82;21064;-72
2022/06/29 11:27:48;;;;;;;7.97;6.17;;;;;;;34.39;37.42;99528.66;1747398;80;21064;-73
2022/06/29 11:30:22;;;;;;;9.40;6.22;;;;;;;34.45;36.77;99508.75;1746200;80;21556;-73
2022/06/29 11:32:52;;;;;;;12.63;6.55;;;;;;;34.48;36.16;99516.34;1746300;82;21060;-73
2022/06/29 11:35:24;;;;;;;13.48;6.78;;;;;;;34.51;35.68;99513.96;1753175;80;21071;-71
2022/06/29 11:38:05;;;;;;;8.75;5.65;;;;;;;34.57;35.45;99522.64;1749344;80;21076;-72
2022/06/29 11:40:41;;;;;;;6.33;5.78;;;;;;;34.63;35.57;99513.55;1740185;80;21075;-72
2022/06/29 11:43:14;;;;;;;10.78;6.30;;;;;;;34.72;35.06;99500.63;1747168;80;21289;-72
2022/06/29 11:45:47;;;;;;;6.62;5.60;;;;;;;34.76;35.51;99503.30;1749125;80;21121;-71
2022/06/29 11:48:20;;;;;;;10.03;6.10;;;;;;;34.81;35.17;99493.23;1745422;80;21036;-72
2022/06/29 11:50:58;;;;;;;10.10;5.75;;;;;;;34.87;34.83;99487.63;1747839;80;21076;-73
2022/06/29 11:53:51;;;;;;;12.07;5.95;;;;;;;34.87;34.48;99473.33;1742743;82;21013;-71
2022/06/29 11:56:22;;;;;;;6.90;6.22;;;;;;;34.91;33.86;99479.00;1739777;81;21733;-70
2022/06/29 11:58:50;;;;;;;6.50;5.67;;;;;;;34.99;35.07;99476.52;1746521;80;21033;-71
2022/06/29 12:01:21;;;;;;;7.53;5.80;;;;;;;35.06;34.28;99473.28;1749631;80;21085;-72
2022/06/29 12:03:50;;;;;;;6.10;5.42;;;;;;;35.13;34.75;99461.31;1750116;80;21018;-72
2022/06/29 12:06:17;;;;;;;8.30;6.42;;;;;;;35.11;33.72;99457.48;1747427;80;21052;-73
2022/06/29 12:08:49;;;;;;;9.93;5.97;;;;;;;35.04;32.97;99449.32;1745523;80;21009;-70